createdAt,value
2023-04-02T00:01:39.797Z,5.97
2023-04-02T00:04:12.809Z,5.10
2023-04-02T00:06:40.118Z,5.00
2023-04-02T00:09:15.621Z,5.10
2023-04-02T00:11:44.394Z,4.03
2023-04-02T00:14:32.333Z,4.70
2023-04-02T00:17:02.254Z,3.72
2023-04-02T00:19:35.397Z,4.43
2023-04-02T00:22:03.222Z,6.73
2023-04-02T00:24:29.833Z,3.85
2023-04-02T00:26:56.437Z,6.10
2023-04-02T00:29:23.086Z,5.13
2023-04-02T00:31:54.481Z,5.60
2023-04-02T00:34:24.121Z,5.97
2023-04-02T00:36:52.327Z,5.43
2023-04-02T00:39:23.673Z,5.35
2023-04-02T00:41:54.268Z,5.00
2023-04-02T00:44:20.915Z,3.80
2023-04-02T00:46:48.964Z,4.80
2023-04-02T00:49:18.254Z,5.38
2023-04-02T00:51:51.196Z,7.38
2023-04-02T00:54:21.725Z,5.43
2023-04-02T00:56:54.975Z,5.07
2023-04-02T00:59:34.216Z,4.90
2023-04-02T01:02:22.815Z,5.22
2023-04-02T01:04:58.426Z,5.50
2023-04-02T01:07:51.252Z,7.55
2023-04-02T01:10:29.773Z,5.20
2023-04-02T01:13:39.810Z,4.80
2023-04-02T01:16:15.485Z,6.22
2023-04-02T01:18:44.829Z,5.05
2023-04-02T01:21:21.050Z,5.97
2023-04-02T01:24:02.137Z,4.93
2023-04-02T01:26:43.715Z,9.97
2023-04-02T01:29:16.338Z,7.00
2023-04-02T01:31:45.419Z,5.32
2023-04-02T01:34:16.709Z,7.50
2023-04-02T01:36:49.335Z,5.80
2023-04-02T01:39:33.692Z,4.63
2023-04-02T01:42:06.076Z,6.90
2023-04-02T01:44:39.923Z,4.43
2023-04-02T01:47:12.093Z,6.60
2023-04-02T01:49:40.120Z,4.32
2023-04-02T01:52:07.428Z,4.50
2023-04-02T01:54:36.824Z,4.97
2023-04-02T01:57:04.723Z,4.40
2023-04-02T01:59:31.443Z,4.78
2023-04-02T02:02:12.172Z,5.43
2023-04-02T02:04:39.747Z,9.40
2023-04-02T02:07:11.873Z,11.15
2023-04-02T02:09:38.633Z,9.98
2023-04-02T02:12:05.465Z,9.85
2023-04-02T02:14:33.257Z,9.68
2023-04-02T02:17:02.421Z,9.00
2023-04-02T02:19:35.181Z,8.05
2023-04-02T02:22:26.799Z,5.72
2023-04-02T02:24:55.213Z,4.97
2023-04-02T02:27:21.863Z,6.90
2023-04-02T02:30:00.167Z,5.80
2023-04-02T02:32:31.627Z,7.13
2023-04-02T02:35:28.930Z,7.60
2023-04-02T02:38:06.235Z,7.72
2023-04-02T02:40:40.853Z,10.35
2023-04-02T02:43:12.481Z,7.60
2023-04-02T02:45:42.840Z,8.13
2023-04-02T02:48:14.300Z,9.38
2023-04-02T02:50:41.860Z,8.82
2023-04-02T02:53:20.306Z,11.73
2023-04-02T02:55:49.115Z,10.40
2023-04-02T02:58:25.112Z,14.40
2023-04-02T03:00:51.888Z,11.90
2023-04-02T03:03:26.503Z,11.60
2023-04-02T03:05:56.780Z,13.40
2023-04-02T03:08:34.728Z,13.47
2023-04-02T03:11:15.976Z,12.10
2023-04-02T03:13:46.180Z,12.95
2023-04-02T03:16:23.020Z,7.43
2023-04-02T03:19:06.225Z,8.68
2023-04-02T03:21:50.824Z,7.17
2023-04-02T03:24:52.303Z,5.50
2023-04-02T03:27:25.275Z,6.05
2023-04-02T03:30:48.064Z,3.40
2023-04-02T03:33:29.733Z,3.17
2023-04-02T03:36:10.552Z,4.97
2023-04-02T03:38:43.675Z,2.22
2023-04-02T03:41:10.112Z,2.47
2023-04-02T03:44:05.643Z,2.63
2023-04-02T03:46:42.873Z,2.75
2023-04-02T03:49:43.855Z,1.70
2023-04-02T03:52:27.114Z,1.95
2023-04-02T03:54:59.170Z,3.65
2023-04-02T03:57:31.265Z,2.67
2023-04-02T04:00:04.575Z,3.30
2023-04-02T04:02:41.207Z,1.47
2023-04-02T04:05:24.307Z,4.10
2023-04-02T04:07:55.690Z,1.77
2023-04-02T04:10:26.118Z,2.85
2023-04-02T04:12:56.605Z,3.92
2023-04-02T04:15:53.658Z,2.80
2023-04-02T04:18:34.014Z,1.80
2023-04-02T04:21:26.278Z,2.03
2023-04-02T04:23:52.862Z,2.15
2023-04-02T04:26:43.693Z,2.30
2023-04-02T04:29:47.651Z,2.10
2023-04-02T04:32:26.153Z,2.60
2023-04-02T04:34:59.200Z,2.97
2023-04-02T04:37:32.857Z,2.22
2023-04-02T04:40:11.310Z,2.58
2023-04-02T04:42:41.837Z,3.03
2023-04-02T04:45:28.685Z,4.43
2023-04-02T04:48:00.041Z,2.72
2023-04-02T04:51:00.737Z,3.70
2023-04-02T04:53:30.031Z,3.78
2023-04-02T04:56:06.017Z,2.57
2023-04-02T04:58:50.672Z,4.88
2023-04-02T05:01:40.713Z,4.57
2023-04-02T05:04:26.250Z,5.53
2023-04-02T05:07:00.827Z,8.02
2023-04-02T05:09:33.072Z,5.67
2023-04-02T05:12:18.255Z,5.13
2023-04-02T05:14:51.948Z,7.63
2023-04-02T05:17:24.426Z,5.07
2023-04-02T05:20:26.044Z,3.90
2023-04-02T05:23:15.118Z,3.60
2023-04-02T05:26:21.185Z,4.20
2023-04-02T05:28:50.788Z,4.53
2023-04-02T05:31:25.272Z,6.22
2023-04-02T05:33:52.897Z,6.32
2023-04-02T05:36:20.713Z,6.50
2023-04-02T05:38:48.692Z,7.25
2023-04-02T05:41:28.797Z,6.85
2023-04-02T05:44:01.611Z,7.03
2023-04-02T05:46:33.726Z,7.60
2023-04-02T05:49:00.557Z,6.17
2023-04-02T05:51:47.105Z,6.00
2023-04-02T05:54:29.413Z,4.38
2023-04-02T05:57:10.197Z,4.80
2023-04-02T05:59:47.127Z,5.38
2023-04-02T06:02:26.672Z,5.23
2023-04-02T06:04:58.982Z,5.47
2023-04-02T06:07:42.003Z,5.50
2023-04-02T06:10:24.640Z,7.22
2023-04-02T06:12:57.317Z,4.47
2023-04-02T06:15:24.684Z,6.93
2023-04-02T06:17:59.764Z,3.35
2023-04-02T06:20:26.885Z,2.90
2023-04-02T06:22:58.858Z,6.63
2023-04-02T06:25:33.785Z,3.15
2023-04-02T06:28:03.820Z,3.37
2023-04-02T06:30:34.107Z,2.13
2023-04-02T06:33:00.908Z,2.92
2023-04-02T06:35:27.791Z,2.72
2023-04-02T06:37:58.057Z,3.45
2023-04-02T06:40:33.729Z,3.30
2023-04-02T06:43:06.302Z,2.78
2023-04-02T06:45:38.334Z,3.20
2023-04-02T06:48:05.829Z,2.85
2023-04-02T06:50:55.668Z,2.85
2023-04-02T06:53:27.676Z,3.73
2023-04-02T06:56:04.011Z,5.40
2023-04-02T06:58:30.582Z,2.58
2023-04-02T07:00:57.276Z,2.08
2023-04-02T07:03:27.194Z,3.35
2023-04-02T07:05:54.508Z,7.13
2023-04-02T07:08:21.631Z,6.07
2023-04-02T07:10:48.268Z,7.78
2023-04-02T07:13:23.323Z,5.45
2023-04-02T07:15:54.435Z,6.90
2023-04-02T07:18:30.988Z,6.77
2023-04-02T07:20:57.766Z,2.00
2023-04-02T07:23:24.948Z,2.55
2023-04-02T07:25:54.199Z,3.83
2023-04-02T07:28:22.757Z,3.05
2023-04-02T07:30:51.100Z,3.33
2023-04-02T07:33:23.056Z,2.35
2023-04-02T07:35:50.463Z,2.58
2023-04-02T07:38:17.237Z,4.10
2023-04-02T07:40:43.999Z,3.17
2023-04-02T07:43:11.050Z,4.73
2023-04-02T07:45:38.114Z,4.13
2023-04-02T07:48:09.545Z,3.53
2023-04-02T07:50:36.433Z,5.18
2023-04-02T07:53:03.232Z,5.55
2023-04-02T07:55:29.837Z,5.27
2023-04-02T07:57:58.621Z,4.70
2023-04-02T08:00:26.642Z,3.05
2023-04-02T08:02:53.545Z,2.95
2023-04-02T08:05:20.452Z,3.35
2023-04-02T08:07:55.150Z,3.27
2023-04-02T08:10:21.661Z,3.20
2023-04-02T08:12:48.355Z,2.97
2023-04-02T08:15:15.955Z,4.30
2023-04-02T08:17:43.417Z,4.22
2023-04-02T08:20:19.304Z,4.93
2023-04-02T08:22:46.845Z,5.20
2023-04-02T08:25:13.790Z,4.53
2023-04-02T08:27:40.388Z,5.88
2023-04-02T08:30:08.943Z,4.57
2023-04-02T08:32:35.611Z,3.67
2023-04-02T08:35:02.367Z,2.92
2023-04-02T08:37:28.889Z,3.42
2023-04-02T08:39:55.591Z,4.68
2023-04-02T08:42:44.269Z,4.28
2023-04-02T08:45:47.330Z,3.20
2023-04-02T08:48:14.715Z,4.43
2023-04-02T08:50:43.412Z,3.92
2023-04-02T08:53:22.599Z,4.63
2023-04-02T08:56:06.876Z,4.50
2023-04-02T08:58:36.248Z,2.87
2023-04-02T09:01:06.429Z,3.15
2023-04-02T09:03:41.665Z,5.43
2023-04-02T09:06:14.774Z,6.93
2023-04-02T09:08:44.913Z,4.20
2023-04-02T09:11:17.274Z,4.37
2023-04-02T09:13:47.290Z,5.38
2023-04-02T09:16:17.152Z,8.55
2023-04-02T09:18:45.466Z,5.75
2023-04-02T09:21:20.957Z,6.57
2023-04-02T09:23:48.849Z,4.80
2023-04-02T09:26:26.048Z,5.72
2023-04-02T09:29:02.459Z,5.40
2023-04-02T09:31:39.298Z,6.40
2023-04-02T09:34:27.734Z,5.25
2023-04-02T09:36:54.426Z,3.60
2023-04-02T09:39:23.660Z,6.20
2023-04-02T09:41:58.998Z,5.95
2023-04-02T09:44:31.408Z,5.22
2023-04-02T09:47:02.046Z,5.65
2023-04-02T09:49:32.491Z,8.20
2023-04-02T09:52:28.944Z,5.85
2023-04-02T09:55:22.380Z,5.63
2023-04-02T09:57:50.929Z,5.68
2023-04-02T10:03:23.789Z,6.50
2023-04-02T10:06:06.565Z,6.25
2023-04-02T10:08:33.877Z,6.30
2023-04-02T10:11:03.709Z,5.20
2023-04-02T10:13:36.004Z,6.00
2023-04-02T10:16:11.518Z,5.77
2023-04-02T10:18:50.268Z,8.80
2023-04-02T10:21:25.738Z,5.78
2023-04-02T10:23:52.322Z,5.43
2023-04-02T10:26:21.523Z,5.25
2023-04-02T10:29:06.705Z,5.20
2023-04-02T10:31:51.681Z,5.53
2023-04-02T10:34:26.148Z,5.57
2023-04-02T10:36:55.354Z,5.20
2023-04-02T10:39:34.401Z,5.50
2023-04-02T10:42:20.040Z,6.03
2023-04-02T10:44:55.415Z,6.15
2023-04-02T10:47:43.426Z,5.72
2023-04-02T10:50:34.512Z,5.18
2023-04-02T10:53:24.645Z,5.65
2023-04-02T10:55:58.875Z,5.90
2023-04-02T10:58:28.774Z,7.35
2023-04-02T11:01:01.407Z,7.25
2023-04-02T11:03:39.417Z,6.72
2023-04-02T11:06:17.569Z,5.45
2023-04-02T11:08:47.222Z,5.77
2023-04-02T11:11:27.787Z,5.93
2023-04-02T11:13:58.699Z,7.60
2023-04-02T11:16:25.845Z,6.45
2023-04-02T11:19:17.335Z,5.28
2023-04-02T11:22:00.063Z,6.50
2023-04-02T11:24:30.408Z,5.82
2023-04-02T11:27:26.051Z,5.90
2023-04-02T11:30:04.527Z,7.55
2023-04-02T11:32:49.848Z,6.30
2023-04-02T11:35:31.811Z,6.57
2023-04-02T11:38:18.584Z,5.75
2023-04-02T11:40:45.185Z,6.13
2023-04-02T11:43:35.243Z,6.13
2023-04-02T11:46:25.950Z,5.72
2023-04-02T11:48:52.497Z,14.10
2023-04-02T11:51:21.846Z,5.57
2023-04-02T11:53:53.891Z,7.90
2023-04-02T11:56:29.466Z,7.32
2023-04-02T11:59:15.650Z,6.35
2023-04-02T12:02:00.216Z,7.20
2023-04-02T12:04:54.618Z,5.55
2023-04-02T12:07:45.208Z,8.40
2023-04-02T12:10:24.548Z,18.38
2023-04-02T12:12:51.343Z,12.48
2023-04-02T12:15:30.005Z,9.17
2023-04-02T12:18:06.482Z,11.00
2023-04-02T12:20:34.257Z,10.70
2023-04-02T12:23:01.886Z,13.75
2023-04-02T12:25:34.465Z,12.63
2023-04-02T12:28:19.232Z,9.03
2023-04-02T12:30:47.847Z,7.03
2023-04-02T12:33:20.282Z,9.43
2023-04-02T12:35:48.732Z,11.70
2023-04-02T12:38:46.412Z,9.82
2023-04-02T12:41:26.562Z,9.77
2023-04-02T12:44:17.670Z,14.65
2023-04-02T12:46:46.316Z,12.40
2023-04-02T12:49:37.056Z,8.93
2023-04-02T12:52:12.974Z,7.47
2023-04-02T12:54:51.450Z,9.27
2023-04-02T12:57:26.775Z,12.25
2023-04-02T13:00:01.716Z,12.13
2023-04-02T13:02:42.824Z,10.73
2023-04-02T13:05:10.076Z,13.18
2023-04-02T13:07:37.427Z,9.30
2023-04-02T13:10:24.770Z,6.95
2023-04-02T13:12:57.573Z,6.47
2023-04-02T13:15:33.164Z,8.13
2023-04-02T13:18:06.948Z,4.85
2023-04-02T13:20:42.421Z,5.43
2023-04-02T13:23:27.343Z,6.93
2023-04-02T13:25:54.335Z,8.27
2023-04-02T13:28:21.427Z,7.18
2023-04-02T13:30:48.125Z,5.95
2023-04-02T13:33:15.408Z,6.00
2023-04-02T13:35:43.182Z,5.82
2023-04-02T13:38:10.088Z,5.78
2023-04-02T13:40:37.877Z,4.70
2023-04-02T13:43:06.435Z,4.95
2023-04-02T13:45:36.823Z,5.53
2023-04-02T13:48:04.231Z,6.25
2023-04-02T13:50:33.124Z,4.82
2023-04-02T13:53:07.198Z,3.30
2023-04-02T13:55:38.626Z,4.90
2023-04-02T13:58:05.858Z,3.60
2023-04-02T14:00:33.703Z,4.80
2023-04-02T14:03:10.894Z,3.25
2023-04-02T14:05:46.452Z,4.53
2023-04-02T14:08:28.228Z,5.65
2023-04-02T14:11:02.673Z,3.73
2023-04-02T14:13:44.124Z,4.32
2023-04-02T14:16:41.314Z,4.00
2023-04-02T14:19:34.422Z,3.42
2023-04-02T14:22:28.783Z,6.30
2023-04-02T14:25:34.264Z,6.17
2023-04-02T14:28:39.390Z,4.60
2023-04-02T14:31:18.319Z,4.38
2023-04-02T14:34:05.081Z,4.88
2023-04-02T14:36:56.131Z,7.05
2023-04-02T14:39:25.655Z,5.13
2023-04-02T14:41:57.215Z,7.55
2023-04-02T14:44:27.870Z,6.13
2023-04-02T14:47:05.284Z,5.50
2023-04-02T14:49:37.165Z,4.82
2023-04-02T14:52:06.037Z,4.90
2023-04-02T14:54:59.344Z,5.25
2023-04-02T14:57:30.735Z,4.38
2023-04-02T15:00:03.196Z,4.55
2023-04-02T15:03:03.118Z,5.50
2023-04-02T15:05:39.722Z,9.93
2023-04-02T15:08:48.339Z,9.55
2023-04-02T15:11:30.983Z,7.55
2023-04-02T15:14:20.155Z,6.88
2023-04-02T15:16:47.045Z,6.28
2023-04-02T15:19:16.527Z,6.43
2023-04-02T15:21:59.092Z,5.43
2023-04-02T15:24:55.896Z,5.47
2023-04-02T15:27:37.377Z,7.47
2023-04-02T15:30:26.864Z,6.43
2023-04-02T15:33:16.106Z,6.83
2023-04-02T15:35:51.495Z,7.43
2023-04-02T15:38:30.988Z,7.78
2023-04-02T15:41:08.640Z,8.07
2023-04-02T15:43:48.261Z,6.15
2023-04-02T15:46:33.629Z,13.60
2023-04-02T15:49:21.885Z,5.72
2023-04-02T15:51:59.471Z,3.85
2023-04-02T15:54:25.978Z,4.90
2023-04-02T15:57:42.856Z,3.90
2023-04-02T16:00:38.566Z,7.60
2023-04-02T16:03:20.756Z,4.93
2023-04-02T16:06:08.793Z,5.03
2023-04-02T16:09:00.394Z,4.70
2023-04-02T16:11:26.971Z,4.70
2023-04-02T16:14:16.837Z,3.73
2023-04-02T16:16:47.984Z,4.82
2023-04-02T16:19:38.481Z,5.43
2023-04-02T16:22:34.244Z,5.63
2023-04-02T16:25:13.432Z,5.60
2023-04-02T16:28:22.544Z,3.93
2023-04-02T16:30:53.153Z,3.75
2023-04-02T16:33:28.437Z,5.43
2023-04-02T16:36:13.491Z,3.58
2023-04-02T16:38:59.277Z,6.00
2023-04-02T16:41:47.637Z,7.00
2023-04-02T16:44:52.509Z,7.40
2023-04-02T16:48:00.881Z,7.15
2023-04-02T16:50:55.821Z,5.72
2023-04-02T16:54:01.093Z,5.95
2023-04-02T16:56:35.462Z,19.43
2023-04-02T16:59:14.056Z,13.77
2023-04-02T17:01:53.775Z,11.45
2023-04-02T17:04:44.898Z,9.80
2023-04-02T17:07:26.582Z,5.50
2023-04-02T17:10:00.560Z,3.63
2023-04-02T17:12:44.385Z,5.20
2023-04-02T17:15:28.618Z,4.32
2023-04-02T17:18:00.952Z,5.75
2023-04-02T17:20:28.268Z,6.45
2023-04-02T17:22:56.121Z,4.40
2023-04-02T17:25:28.142Z,4.35
2023-04-02T17:27:56.763Z,3.28
2023-04-02T17:30:43.630Z,4.95
2023-04-02T17:33:15.736Z,3.83
2023-04-02T17:36:17.717Z,4.97
2023-04-02T17:38:52.843Z,6.38
2023-04-02T17:41:29.457Z,4.70
2023-04-02T17:44:24.391Z,4.85
2023-04-02T17:47:22.419Z,5.15
2023-04-02T17:50:14.854Z,5.80
2023-04-02T17:52:54.236Z,4.55
2023-04-02T17:55:58.262Z,6.72
2023-04-02T17:59:05.239Z,5.38
2023-04-02T18:01:44.074Z,5.07
2023-04-02T18:04:28.030Z,5.63
2023-04-02T18:07:19.112Z,5.07
2023-04-02T18:10:24.186Z,5.50
2023-04-02T18:12:54.262Z,5.65
2023-04-02T18:15:53.632Z,6.65
2023-04-02T18:18:28.913Z,6.10
2023-04-02T18:21:07.169Z,5.15
2023-04-02T18:23:37.783Z,5.82
2023-04-02T18:26:38.954Z,6.22
2023-04-02T18:29:24.088Z,7.10
2023-04-02T18:31:56.204Z,7.70
2023-04-02T18:34:53.009Z,5.57
2023-04-02T18:37:41.952Z,5.57
2023-04-02T18:40:26.484Z,6.00
2023-04-02T18:42:53.007Z,6.80
2023-04-02T18:45:28.920Z,6.77
2023-04-02T18:48:43.206Z,7.00
2023-04-02T18:51:21.989Z,8.98
2023-04-02T18:54:18.398Z,6.88
2023-04-02T18:56:45.044Z,7.40
2023-04-02T18:59:32.366Z,9.97
2023-04-02T19:02:05.674Z,9.65
2023-04-02T19:04:34.760Z,8.88
2023-04-02T19:07:06.778Z,7.35
2023-04-02T19:09:41.043Z,8.30
2023-04-02T19:12:15.639Z,6.77
2023-04-02T19:14:42.324Z,6.78
2023-04-02T19:17:33.533Z,7.75
2023-04-02T19:20:12.008Z,6.88
2023-04-02T19:22:54.361Z,8.02
2023-04-02T19:25:35.738Z,7.23
2023-04-02T19:28:12.985Z,9.05
2023-04-02T19:31:23.420Z,8.05
2023-04-02T19:33:58.122Z,8.38
2023-04-02T19:36:24.677Z,7.68
2023-04-02T19:39:31.751Z,7.90
2023-04-02T19:42:22.587Z,6.18
2023-04-02T19:44:51.924Z,5.82
2023-04-02T19:47:20.067Z,6.97
2023-04-02T19:49:46.805Z,6.60
2023-04-02T19:52:13.610Z,8.33
2023-04-02T19:54:40.301Z,6.60
2023-04-02T19:57:07.133Z,6.60
2023-04-02T19:59:33.799Z,6.43
2023-04-02T20:02:00.366Z,6.18
2023-04-02T20:04:26.976Z,6.53
2023-04-02T20:06:53.626Z,5.32
2023-04-02T20:09:20.196Z,8.95
2023-04-02T20:11:46.834Z,9.10
2023-04-02T20:14:13.549Z,6.00
2023-04-02T20:16:40.179Z,5.53
2023-04-02T20:19:06.895Z,4.32
2023-04-02T20:21:33.511Z,5.75
2023-04-02T20:24:00.200Z,6.22
2023-04-02T20:26:26.895Z,6.07
2023-04-02T20:28:53.560Z,6.07
2023-04-02T20:31:20.204Z,6.65
2023-04-02T20:33:47.099Z,6.47
2023-04-02T20:36:17.196Z,7.07
2023-04-02T20:38:44.419Z,6.05
2023-04-02T20:41:11.142Z,5.57
2023-04-02T20:43:38.166Z,7.43
2023-04-02T20:46:06.300Z,5.75
2023-04-02T20:48:35.121Z,8.80
2023-04-02T20:51:03.568Z,7.25
2023-04-02T20:53:32.141Z,5.70
2023-04-02T20:56:10.190Z,8.60
2023-04-02T20:58:38.326Z,5.85
2023-04-02T21:01:13.306Z,5.05
2023-04-02T21:03:39.964Z,9.43
2023-04-02T21:06:12.172Z,5.03
2023-04-02T21:08:38.745Z,6.72
2023-04-02T21:11:06.143Z,4.32
2023-04-02T21:13:34.001Z,6.25
2023-04-02T21:16:00.625Z,4.43
2023-04-02T21:18:27.362Z,4.90
2023-04-02T21:20:58.400Z,5.68
2023-04-02T21:23:25.220Z,5.95
2023-04-02T21:25:56.566Z,4.40
2023-04-02T21:28:23.543Z,5.50
2023-04-02T21:30:50.093Z,9.17
2023-04-02T21:33:16.662Z,4.57
2023-04-02T21:35:43.307Z,5.72
2023-04-02T21:38:09.893Z,5.53
2023-04-02T21:40:36.495Z,5.22
2023-04-02T21:43:03.143Z,6.27
2023-04-02T21:45:29.655Z,5.15
2023-04-02T21:47:56.194Z,4.47
2023-04-02T21:50:22.835Z,5.75
2023-04-02T21:52:49.384Z,5.30
2023-04-02T21:55:16.024Z,3.63
2023-04-02T21:57:42.559Z,4.50
2023-04-02T22:00:09.665Z,4.38
2023-04-02T22:02:36.289Z,3.63
2023-04-02T22:05:02.950Z,3.67
2023-04-02T22:07:29.553Z,4.93
2023-04-02T22:09:56.053Z,4.20
2023-04-02T22:12:22.669Z,4.38
2023-04-02T22:14:49.275Z,3.95
2023-04-02T22:17:15.801Z,4.22
2023-04-02T22:19:42.368Z,3.50
2023-04-02T22:22:08.920Z,3.85
2023-04-02T22:24:35.515Z,4.55
2023-04-02T22:27:02.070Z,5.30
2023-04-02T22:29:28.692Z,4.13
2023-04-02T22:31:55.190Z,6.53
2023-04-02T22:34:21.744Z,4.47
2023-04-02T22:36:48.356Z,5.18
2023-04-02T22:39:15.004Z,4.57
2023-04-02T22:41:41.610Z,4.97
2023-04-02T22:44:13.693Z,5.60
2023-04-02T22:46:40.262Z,4.82
2023-04-02T22:49:06.899Z,5.78
2023-04-02T22:51:33.466Z,6.88
2023-04-02T22:53:59.962Z,6.47
2023-04-02T22:56:28.842Z,5.20
2023-04-02T22:58:55.595Z,6.10
2023-04-02T23:01:32.511Z,5.38
2023-04-02T23:03:59.509Z,6.95
2023-04-02T23:06:26.544Z,6.30
2023-04-02T23:08:53.448Z,6.33
2023-04-02T23:11:22.985Z,6.03
2023-04-02T23:13:51.926Z,6.32
2023-04-02T23:16:19.532Z,5.45
2023-04-02T23:18:46.537Z,5.75
2023-04-02T23:21:13.272Z,6.07
2023-04-02T23:23:40.328Z,6.75
2023-04-02T23:26:06.798Z,9.00
2023-04-02T23:28:34.604Z,6.15
2023-04-02T23:31:02.885Z,6.93
2023-04-02T23:33:29.413Z,4.80
2023-04-02T23:35:56.076Z,5.72
2023-04-02T23:38:22.711Z,5.65
2023-04-02T23:40:49.322Z,5.55
2023-04-02T23:43:16.085Z,5.03
2023-04-02T23:45:47.267Z,5.80
2023-04-02T23:48:13.816Z,4.68
2023-04-02T23:50:40.462Z,5.70
2023-04-02T23:53:07.137Z,5.93
2023-04-02T23:55:33.656Z,4.93
2023-04-02T23:58:00.201Z,6.50
